createdAt,value
2018-08-03T00:01:33.858Z,53.50
2018-08-03T00:04:05.959Z,53.30
2018-08-03T00:06:37.972Z,53.50
2018-08-03T00:09:11.732Z,53.30
2018-08-03T00:11:43.901Z,53.40
2018-08-03T00:14:15.990Z,53.40
2018-08-03T00:16:48.251Z,53.50
2018-08-03T00:19:20.252Z,53.50
2018-08-03T00:24:23.507Z,53.30
2018-08-03T00:26:55.529Z,53.50
2018-08-03T00:29:27.695Z,53.60
2018-08-03T00:31:59.640Z,53.50
2018-08-03T00:34:31.657Z,53.50
2018-08-03T00:37:03.630Z,53.30
2018-08-03T00:39:35.501Z,53.40
2018-08-03T00:42:07.530Z,53.40
2018-08-03T00:44:39.397Z,53.50
2018-08-03T00:47:11.513Z,53.60
2018-08-03T00:49:43.643Z,53.30
2018-08-03T00:52:15.678Z,53.40
2018-08-03T00:54:47.698Z,53.90
2018-08-03T00:57:20.068Z,53.70
2018-08-03T00:59:52.013Z,53.60
2018-08-03T01:02:24.027Z,53.50
2018-08-03T01:04:55.918Z,54.20
2018-08-03T01:07:28.123Z,53.60
2018-08-03T01:10:00.031Z,53.60
2018-08-03T01:12:32.106Z,53.50
2018-08-03T01:15:04.267Z,53.40
2018-08-03T01:20:07.168Z,53.50
2018-08-03T01:25:10.142Z,53.60
2018-08-03T01:27:42.119Z,53.50
2018-08-03T01:30:14.218Z,53.60
2018-08-03T01:32:55.051Z,53.60
2018-08-03T01:35:27.866Z,53.60
2018-08-03T01:38:02.426Z,53.50
2018-08-03T01:40:34.468Z,53.60
2018-08-03T01:43:06.651Z,53.70
2018-08-03T01:45:38.600Z,53.60
2018-08-03T01:48:10.517Z,53.50
2018-08-03T01:50:42.629Z,53.60
2018-08-03T01:53:14.707Z,53.70
2018-08-03T01:55:46.617Z,53.60
2018-08-03T01:58:18.729Z,53.70
2018-08-03T02:00:50.878Z,53.70
2018-08-03T02:04:25.359Z,53.50
2018-08-03T02:06:57.605Z,53.70
2018-08-03T02:09:30.225Z,53.70
2018-08-03T02:12:02.114Z,53.70
2018-08-03T02:14:34.738Z,53.60
2018-08-03T02:17:06.656Z,53.60
2018-08-03T02:19:38.626Z,53.60
2018-08-03T02:22:10.735Z,53.70
2018-08-03T02:24:42.977Z,53.60
2018-08-03T02:27:15.018Z,53.60
2018-08-03T02:29:47.124Z,53.60
2018-08-03T02:32:19.353Z,53.70
2018-08-03T02:34:51.393Z,53.60
2018-08-03T02:37:23.446Z,53.80
2018-08-03T02:39:55.520Z,53.70
2018-08-03T02:42:27.607Z,53.80
2018-08-03T02:44:59.818Z,53.80
2018-08-03T02:47:31.716Z,53.90
2018-08-03T02:50:07.158Z,53.80
2018-08-03T02:52:39.349Z,53.90
2018-08-03T02:55:11.558Z,54.00
2018-08-03T02:57:44.262Z,53.90
2018-08-03T03:02:47.649Z,53.80
2018-08-03T03:05:20.184Z,53.90
2018-08-03T03:07:52.422Z,54.50
2018-08-03T03:10:24.318Z,53.80
2018-08-03T03:12:56.492Z,53.80
2018-08-03T03:15:28.701Z,53.90
2018-08-03T03:18:00.977Z,53.90
2018-08-03T03:20:32.905Z,54.00
2018-08-03T03:23:04.838Z,54.00
2018-08-03T03:25:37.061Z,54.00
2018-08-03T03:28:09.174Z,54.00
2018-08-03T03:30:41.137Z,54.00
2018-08-03T03:33:13.232Z,54.80
2018-08-03T03:35:45.384Z,54.10
2018-08-03T03:38:17.405Z,54.10
2018-08-03T03:40:49.483Z,54.10
2018-08-03T03:43:21.397Z,54.10
2018-08-03T03:45:53.187Z,54.20
2018-08-03T03:48:25.286Z,54.20
2018-08-03T03:50:58.355Z,54.30
2018-08-03T03:53:31.113Z,54.10
2018-08-03T03:56:03.456Z,54.20
2018-08-03T03:58:35.373Z,54.20
2018-08-03T04:01:07.403Z,54.80
2018-08-03T04:03:39.546Z,54.30
2018-08-03T04:06:11.568Z,54.40
2018-08-03T04:08:43.789Z,54.40
2018-08-03T04:11:15.917Z,54.30
2018-08-03T04:13:48.659Z,54.40
2018-08-03T04:16:20.775Z,54.50
2018-08-03T04:18:53.130Z,54.70
2018-08-03T04:21:25.134Z,54.60
2018-08-03T04:23:58.363Z,54.60
2018-08-03T04:26:30.659Z,54.60
2018-08-03T04:29:02.621Z,54.60
2018-08-03T04:31:35.481Z,54.70
2018-08-03T04:34:07.578Z,54.70
2018-08-03T04:36:39.658Z,54.70
2018-08-03T04:39:11.696Z,54.80
2018-08-03T04:41:43.466Z,54.80
2018-08-03T04:44:15.512Z,55.50
2018-08-03T04:46:47.734Z,54.90
2018-08-03T04:49:19.926Z,55.00
2018-08-03T04:51:52.809Z,55.00
2018-08-03T04:54:25.091Z,55.10
2018-08-03T04:56:57.300Z,55.10
2018-08-03T04:59:29.114Z,55.10
2018-08-03T05:02:01.895Z,55.20
2018-08-03T05:04:34.396Z,55.20
2018-08-03T05:07:06.373Z,55.30
2018-08-03T05:09:38.352Z,55.40
2018-08-03T05:12:10.344Z,55.40
2018-08-03T05:14:42.904Z,55.50
2018-08-03T05:17:15.925Z,55.50
2018-08-03T05:19:48.569Z,56.00
2018-08-03T05:22:20.626Z,55.70
2018-08-03T05:24:53.091Z,56.40
2018-08-03T05:27:25.121Z,55.80
2018-08-03T05:29:57.338Z,56.40
2018-08-03T05:32:29.254Z,56.30
2018-08-03T05:35:01.182Z,56.40
2018-08-03T05:37:33.447Z,56.70
2018-08-03T05:40:05.422Z,56.70
2018-08-03T05:42:38.240Z,56.40
2018-08-03T05:45:10.649Z,56.50
2018-08-03T05:47:43.347Z,56.60
2018-08-03T05:50:15.672Z,60.50
2018-08-03T05:52:47.847Z,60.70
2018-08-03T05:55:19.830Z,59.20
2018-08-03T05:58:07.097Z,58.80
2018-08-03T06:00:39.127Z,59.20
2018-08-03T06:03:11.113Z,58.50
2018-08-03T06:05:43.045Z,58.40
2018-08-03T06:08:15.150Z,58.40
2018-08-03T06:10:47.448Z,58.40
2018-08-03T06:13:19.758Z,58.40
2018-08-03T06:15:51.681Z,58.40
2018-08-03T06:18:23.778Z,58.30
2018-08-03T06:20:56.118Z,58.30
2018-08-03T06:23:28.381Z,58.30
2018-08-03T06:26:00.489Z,58.30
2018-08-03T06:28:32.642Z,58.30
2018-08-03T06:31:04.846Z,58.50
2018-08-03T06:33:36.889Z,58.60
2018-08-03T06:36:09.031Z,58.50
2018-08-03T06:38:41.056Z,58.40
2018-08-03T06:41:13.270Z,58.30
2018-08-03T06:43:45.305Z,58.20
2018-08-03T06:46:17.436Z,58.20
2018-08-03T06:48:49.438Z,58.30
2018-08-03T06:51:21.529Z,58.30
2018-08-03T06:53:53.734Z,58.10
2018-08-03T06:56:25.736Z,58.30
2018-08-03T06:58:58.625Z,58.20
2018-08-03T07:01:30.705Z,58.10
2018-08-03T07:04:02.807Z,58.10
2018-08-03T07:06:34.889Z,58.20
2018-08-03T07:09:10.503Z,58.30
2018-08-03T07:11:42.805Z,58.20
2018-08-03T07:14:14.990Z,58.10
2018-08-03T07:16:47.183Z,58.00
2018-08-03T07:19:19.127Z,58.10
2018-08-03T07:21:51.137Z,58.00
2018-08-03T07:24:23.102Z,58.10
2018-08-03T07:26:55.090Z,58.10
2018-08-03T07:29:27.292Z,58.10
2018-08-03T07:31:59.485Z,58.30
2018-08-03T07:34:31.533Z,58.00
2018-08-03T07:37:03.625Z,58.10
2018-08-03T07:39:35.777Z,58.10
2018-08-03T07:42:09.099Z,58.10
2018-08-03T07:44:41.420Z,58.00
2018-08-03T07:47:13.534Z,58.10
2018-08-03T07:49:45.770Z,58.40
2018-08-03T07:52:18.395Z,58.10
2018-08-03T07:54:53.597Z,58.00
2018-08-03T07:57:25.844Z,58.00
2018-08-03T07:59:58.070Z,58.00
2018-08-03T08:02:30.249Z,58.00
2018-08-03T08:05:02.915Z,58.10
2018-08-03T08:07:35.023Z,58.10
2018-08-03T08:10:07.352Z,58.10
2018-08-03T08:12:39.406Z,58.20
2018-08-03T08:15:11.630Z,58.10
2018-08-03T08:17:43.689Z,58.00
2018-08-03T08:20:15.762Z,58.10
2018-08-03T08:22:47.946Z,58.10
2018-08-03T08:25:20.036Z,58.10
2018-08-03T08:27:52.145Z,58.20
2018-08-03T08:30:24.194Z,58.10
2018-08-03T08:32:56.495Z,58.20
2018-08-03T08:35:28.520Z,58.20
2018-08-03T08:38:00.493Z,58.20
2018-08-03T08:40:32.863Z,58.20
2018-08-03T08:43:05.653Z,58.20
2018-08-03T08:45:37.764Z,58.20
2018-08-03T08:48:09.706Z,58.30
2018-08-03T08:50:41.922Z,58.30
2018-08-03T08:53:14.102Z,58.30
2018-08-03T08:58:17.275Z,58.50
2018-08-03T09:00:49.428Z,58.50
2018-08-03T09:03:21.633Z,58.40
2018-08-03T09:05:54.088Z,58.30
2018-08-03T09:08:26.334Z,58.30
2018-08-03T09:10:58.316Z,58.30
2018-08-03T09:13:30.704Z,58.30
2018-08-03T09:16:03.284Z,58.20
2018-08-03T09:18:35.526Z,58.30
2018-08-03T09:21:08.158Z,58.30
2018-08-03T09:23:40.402Z,58.30
2018-08-03T09:26:12.625Z,58.30
2018-08-03T09:28:44.670Z,58.30
2018-08-03T09:31:17.033Z,58.40
2018-08-03T09:33:49.315Z,58.30
2018-08-03T09:36:21.389Z,58.20
2018-08-03T09:38:53.675Z,58.30
2018-08-03T09:41:25.709Z,58.10
2018-08-03T09:43:57.916Z,58.10
2018-08-03T09:46:30.276Z,58.20
2018-08-03T09:49:02.493Z,58.10
2018-08-03T09:51:34.668Z,58.20
2018-08-03T09:54:06.738Z,58.00
2018-08-03T09:56:39.212Z,57.90
2018-08-03T09:59:11.526Z,57.80
2018-08-03T10:01:43.670Z,57.60
2018-08-03T10:04:15.885Z,57.50
2018-08-03T10:06:48.148Z,57.10
2018-08-03T10:09:20.514Z,57.30
2018-08-03T10:11:52.490Z,57.40
2018-08-03T10:16:56.226Z,57.50
2018-08-03T10:19:28.211Z,57.50
2018-08-03T10:22:00.238Z,57.40
2018-08-03T10:24:32.254Z,57.40
2018-08-03T10:27:04.528Z,57.30
2018-08-03T10:29:36.722Z,57.40
2018-08-03T10:32:09.221Z,57.30
2018-08-03T10:34:41.518Z,57.30
2018-08-03T10:37:13.803Z,57.30
2018-08-03T10:39:46.270Z,57.20
2018-08-03T10:42:18.558Z,57.10
2018-08-03T10:44:50.822Z,57.80
2018-08-03T10:47:23.073Z,57.00
2018-08-03T10:52:26.683Z,56.80
2018-08-03T10:55:00.106Z,56.90
2018-08-03T10:57:32.327Z,56.70
2018-08-03T11:00:04.827Z,56.80
2018-08-03T11:02:37.598Z,56.80
2018-08-03T11:05:09.704Z,56.80
2018-08-03T11:07:42.253Z,56.50
2018-08-03T11:10:15.491Z,56.50
2018-08-03T11:12:49.435Z,56.60
2018-08-03T11:15:21.567Z,56.60
2018-08-03T11:17:59.292Z,56.60
2018-08-03T11:20:31.445Z,56.60
2018-08-03T11:23:03.836Z,56.50
2018-08-03T11:25:36.125Z,56.50
2018-08-03T11:28:08.239Z,56.50
2018-08-03T11:30:40.343Z,56.50
2018-08-03T11:33:12.615Z,56.40
2018-08-03T11:35:44.607Z,55.80
2018-08-03T11:38:16.757Z,55.00
2018-08-03T11:40:48.842Z,55.20
2018-08-03T11:43:21.114Z,54.90
2018-08-03T11:45:53.042Z,54.50
2018-08-03T11:48:25.165Z,54.10
2018-08-03T11:50:57.300Z,54.20
2018-08-03T11:53:29.475Z,54.30
2018-08-03T11:56:01.697Z,54.50
2018-08-03T11:58:33.839Z,54.60
2018-08-03T12:01:06.989Z,54.70
2018-08-03T12:03:39.336Z,54.70
2018-08-03T12:08:42.879Z,54.80
2018-08-03T12:11:15.292Z,54.70
2018-08-03T12:13:47.516Z,54.60
2018-08-03T12:16:19.539Z,54.70
2018-08-03T12:18:51.827Z,54.60
2018-08-03T12:21:24.025Z,54.70
2018-08-03T12:23:56.359Z,54.50
2018-08-03T12:26:28.970Z,54.50
2018-08-03T12:29:01.017Z,54.60
2018-08-03T12:31:33.368Z,54.40
2018-08-03T12:34:05.771Z,54.40
2018-08-03T12:36:38.157Z,54.50
2018-08-03T12:39:11.946Z,54.40
2018-08-03T12:41:44.312Z,54.40
2018-08-03T12:44:16.468Z,54.40
2018-08-03T12:49:19.773Z,54.40
2018-08-03T12:51:51.951Z,54.40
2018-08-03T12:54:24.380Z,54.20
2018-08-03T12:56:56.570Z,54.30
2018-08-03T12:59:28.691Z,54.10
2018-08-03T13:02:00.661Z,53.90
2018-08-03T13:04:33.053Z,54.00
2018-08-03T13:07:05.285Z,53.90
2018-08-03T13:09:37.275Z,53.70
2018-08-03T13:12:09.320Z,53.70
2018-08-03T13:14:41.539Z,53.70
2018-08-03T13:17:13.893Z,53.80
2018-08-03T13:19:46.139Z,53.60
2018-08-03T13:22:21.405Z,53.80
2018-08-03T13:24:54.021Z,53.60
2018-08-03T13:27:26.220Z,53.60
2018-08-03T13:30:24.612Z,53.60
2018-08-03T13:33:11.563Z,53.50
2018-08-03T13:35:43.938Z,53.50
2018-08-03T13:38:15.948Z,53.40
2018-08-03T13:40:48.010Z,53.30
2018-08-03T13:43:20.169Z,53.30
2018-08-03T13:45:52.305Z,53.20
2018-08-03T13:48:24.354Z,53.10
2018-08-03T13:50:57.008Z,53.20
2018-08-03T13:53:29.848Z,53.00
2018-08-03T13:56:02.773Z,52.90
2018-08-03T13:58:35.183Z,53.00
2018-08-03T14:01:17.699Z,52.70
2018-08-03T14:03:49.747Z,52.60
2018-08-03T14:06:21.718Z,52.20
2018-08-03T14:08:53.670Z,52.40
2018-08-03T14:11:25.685Z,52.20
2018-08-03T14:13:57.883Z,52.20
2018-08-03T14:16:29.853Z,52.20
2018-08-03T14:19:01.931Z,51.80
2018-08-03T14:21:33.892Z,52.20
2018-08-03T14:24:06.281Z,53.00
2018-08-03T14:26:38.358Z,52.30
2018-08-03T14:29:10.611Z,52.20
2018-08-03T14:31:42.610Z,52.10
2018-08-03T14:34:14.818Z,52.40
2018-08-03T14:36:48.857Z,52.40
2018-08-03T14:39:21.089Z,52.30
2018-08-03T14:41:53.353Z,52.20
2018-08-03T14:44:25.593Z,52.50
2018-08-03T14:46:57.815Z,52.40
2018-08-03T14:49:29.819Z,52.30
2018-08-03T14:54:33.825Z,52.30
2018-08-03T14:57:06.051Z,52.30
2018-08-03T14:59:38.179Z,52.20
2018-08-03T15:02:10.357Z,52.30
2018-08-03T15:04:42.514Z,52.40
2018-08-03T15:07:14.742Z,52.50
2018-08-03T15:09:46.690Z,52.40
2018-08-03T15:12:18.829Z,52.40
2018-08-03T15:14:50.908Z,52.40
2018-08-03T15:17:23.165Z,52.40
2018-08-03T15:19:55.368Z,52.20
2018-08-03T15:22:27.604Z,52.40
2018-08-03T15:24:59.943Z,52.40
2018-08-03T15:27:31.990Z,52.50
2018-08-03T15:30:04.175Z,52.50
2018-08-03T15:32:36.271Z,52.50
2018-08-03T15:35:09.208Z,52.60
2018-08-03T15:37:41.383Z,52.80
2018-08-03T15:40:13.333Z,52.80
2018-08-03T15:42:45.422Z,52.90
2018-08-03T15:45:17.443Z,52.90
2018-08-03T15:47:49.472Z,52.50
2018-08-03T15:50:21.678Z,52.90
2018-08-03T15:52:53.796Z,52.90
2018-08-03T15:55:26.019Z,53.10
2018-08-03T15:57:58.067Z,53.10
2018-08-03T16:00:30.117Z,53.30
2018-08-03T16:03:02.283Z,53.30
2018-08-03T16:05:34.494Z,53.40
2018-08-03T16:08:06.679Z,53.60
2018-08-03T16:10:38.549Z,53.50
2018-08-03T16:13:10.791Z,53.60
2018-08-03T16:15:42.830Z,53.70
2018-08-03T16:18:14.992Z,53.60
2018-08-03T16:20:46.981Z,53.70
2018-08-03T16:23:18.983Z,53.70
2018-08-03T16:25:51.374Z,53.80
2018-08-03T16:28:31.218Z,53.80
2018-08-03T16:31:03.354Z,53.70
2018-08-03T16:33:35.647Z,53.90
2018-08-03T16:36:07.875Z,53.90
2018-08-03T16:38:40.137Z,54.10
2018-08-03T16:41:12.368Z,53.90
2018-08-03T16:43:44.896Z,54.10
2018-08-03T16:46:17.069Z,54.10
2018-08-03T16:48:49.289Z,53.90
2018-08-03T16:51:21.588Z,54.10
2018-08-03T16:53:53.605Z,53.90
2018-08-03T16:56:25.868Z,53.90
2018-08-03T16:58:58.137Z,53.80
2018-08-03T17:01:30.406Z,53.90
2018-08-03T17:04:02.612Z,53.80
2018-08-03T17:06:34.801Z,53.60
2018-08-03T17:12:42.872Z,53.80
2018-08-03T17:15:15.554Z,53.60
2018-08-03T17:17:47.716Z,53.50
2018-08-03T17:20:19.875Z,53.40
2018-08-03T17:22:52.189Z,53.70
2018-08-03T17:25:24.116Z,53.60
2018-08-03T17:27:56.366Z,53.60
2018-08-03T17:30:28.554Z,53.80
2018-08-03T17:33:01.427Z,53.80
2018-08-03T17:35:33.493Z,53.70
2018-08-03T17:38:05.673Z,53.70
2018-08-03T17:40:37.491Z,53.70
2018-08-03T17:43:09.434Z,53.80
2018-08-03T17:45:41.750Z,53.70
2018-08-03T17:48:13.930Z,53.80
2018-08-03T17:50:45.968Z,53.70
2018-08-03T17:53:18.034Z,53.90
2018-08-03T17:55:50.350Z,54.10
2018-08-03T17:58:22.534Z,54.00
2018-08-03T18:00:54.689Z,53.90
2018-08-03T18:05:57.706Z,54.10
2018-08-03T18:08:29.738Z,54.20
2018-08-03T18:11:01.563Z,54.20
2018-08-03T18:13:33.671Z,54.20
2018-08-03T18:18:37.143Z,53.90
2018-08-03T18:21:09.487Z,52.40
2018-08-03T18:23:44.312Z,52.80
2018-08-03T18:26:16.234Z,53.00
2018-08-03T18:28:48.426Z,52.90
2018-08-03T18:31:22.571Z,52.90
2018-08-03T18:33:54.447Z,52.80
2018-08-03T18:36:26.484Z,52.60
2018-08-03T18:38:58.842Z,52.50
2018-08-03T18:41:31.126Z,52.10
2018-08-03T18:44:03.147Z,52.20
2018-08-03T18:49:06.452Z,52.10
2018-08-03T18:51:38.348Z,51.90
2018-08-03T18:54:10.892Z,51.90
2018-08-03T18:56:42.926Z,51.90
2018-08-03T18:59:16.159Z,51.90
2018-08-03T19:01:48.470Z,51.90
2018-08-03T19:04:20.562Z,51.80
2018-08-03T19:06:52.659Z,52.50
2018-08-03T19:09:24.889Z,52.00
2018-08-03T19:11:57.093Z,51.90
2018-08-03T19:14:30.215Z,52.10
2018-08-03T19:17:02.596Z,52.00
2018-08-03T19:19:34.847Z,52.20
2018-08-03T19:22:06.943Z,52.30
2018-08-03T19:24:39.359Z,52.40
2018-08-03T19:27:11.482Z,52.50
2018-08-03T19:29:43.697Z,52.50
2018-08-03T19:32:15.933Z,52.50
2018-08-03T19:34:47.979Z,52.80
2018-08-03T19:37:20.067Z,52.70
2018-08-03T19:39:52.037Z,52.70
2018-08-03T19:42:23.993Z,52.90
2018-08-03T19:44:55.958Z,52.90
2018-08-03T19:47:27.934Z,53.30
2018-08-03T19:49:59.796Z,53.20
2018-08-03T19:52:31.940Z,53.00
2018-08-03T19:55:04.023Z,53.30
2018-08-03T19:57:35.965Z,53.40
2018-08-03T20:00:09.443Z,53.40
2018-08-03T20:02:41.998Z,53.50
2018-08-03T20:05:14.375Z,53.50
2018-08-03T20:07:46.631Z,53.60
2018-08-03T20:10:19.796Z,53.50
2018-08-03T20:12:51.931Z,53.60
2018-08-03T20:15:24.101Z,53.70
2018-08-03T20:17:56.272Z,53.60
2018-08-03T20:20:28.169Z,53.70
2018-08-03T20:23:00.100Z,53.80
2018-08-03T20:25:32.175Z,53.90
2018-08-03T20:28:04.341Z,53.80
2018-08-03T20:30:36.382Z,54.00
2018-08-03T20:33:08.332Z,53.80
2018-08-03T20:35:40.338Z,53.90
2018-08-03T20:38:12.439Z,53.90
2018-08-03T20:40:44.568Z,54.00
2018-08-03T20:43:16.674Z,54.10
2018-08-03T20:45:48.804Z,54.10
2018-08-03T20:48:21.011Z,54.10
2018-08-03T20:50:53.363Z,54.10
2018-08-03T20:53:25.645Z,54.10
2018-08-03T20:55:58.011Z,54.10
2018-08-03T20:58:29.976Z,54.10
2018-08-03T21:01:01.930Z,54.20
2018-08-03T21:03:34.068Z,54.20
2018-08-03T21:06:06.391Z,54.20
2018-08-03T21:08:41.697Z,54.80
2018-08-03T21:11:17.170Z,54.10
2018-08-03T21:13:49.709Z,54.20
2018-08-03T21:16:22.000Z,54.20
2018-08-03T21:19:02.696Z,54.20
2018-08-03T21:21:35.752Z,54.20
2018-08-03T21:24:08.115Z,54.20
2018-08-03T21:26:40.157Z,54.20
2018-08-03T21:29:11.795Z,54.20
2018-08-03T21:31:43.904Z,54.20
2018-08-03T21:34:16.381Z,54.20
2018-08-03T21:36:48.464Z,54.50
2018-08-03T21:39:20.484Z,56.20
2018-08-03T21:41:52.279Z,57.30
2018-08-03T21:44:24.513Z,58.20
2018-08-03T21:46:56.686Z,58.80
2018-08-03T21:49:28.742Z,59.90
2018-08-03T21:52:00.799Z,59.70
2018-08-03T21:54:33.001Z,59.70
2018-08-03T21:57:05.295Z,60.00
2018-08-03T21:59:37.470Z,60.50
2018-08-03T22:02:09.958Z,59.80
2018-08-03T22:04:41.953Z,58.70
2018-08-03T22:07:13.997Z,58.10
2018-08-03T22:09:46.500Z,57.80
2018-08-03T22:12:18.578Z,57.60
2018-08-03T22:14:50.770Z,57.50
2018-08-03T22:19:53.805Z,57.30
2018-08-03T22:22:26.511Z,57.20
2018-08-03T22:24:58.677Z,57.10
2018-08-03T22:27:30.801Z,56.60
2018-08-03T22:32:33.892Z,57.00
2018-08-03T22:35:06.073Z,57.00
2018-08-03T22:37:38.159Z,57.10
2018-08-03T22:40:10.334Z,57.00
2018-08-03T22:42:42.427Z,57.00
2018-08-03T22:45:14.405Z,57.00
2018-08-03T22:47:46.496Z,56.90
2018-08-03T22:50:18.950Z,56.90
2018-08-03T22:52:51.086Z,56.80
2018-08-03T22:55:23.341Z,56.60
2018-08-03T22:57:55.383Z,56.70
2018-08-03T23:00:27.471Z,56.70
2018-08-03T23:02:59.614Z,56.80
2018-08-03T23:05:31.688Z,56.90
2018-08-03T23:08:03.944Z,56.80
2018-08-03T23:10:36.044Z,56.80
2018-08-03T23:13:08.093Z,56.90
2018-08-03T23:15:40.268Z,56.90
2018-08-03T23:18:12.209Z,56.80
2018-08-03T23:20:44.215Z,56.90
2018-08-03T23:23:16.050Z,56.40
2018-08-03T23:25:48.153Z,56.70
2018-08-03T23:28:20.145Z,56.60
2018-08-03T23:30:52.218Z,56.90
2018-08-03T23:33:24.230Z,56.90
2018-08-03T23:35:56.266Z,56.70
2018-08-03T23:38:28.561Z,56.60
2018-08-03T23:41:00.637Z,56.70
2018-08-03T23:43:32.791Z,57.50
2018-08-03T23:46:04.835Z,56.70
2018-08-03T23:48:37.091Z,56.60
2018-08-03T23:51:09.060Z,56.70
2018-08-03T23:53:41.098Z,56.60
2018-08-03T23:56:13.308Z,56.80
2018-08-03T23:58:45.318Z,56.80
